createdAt,value
2023-03-06T00:01:33.026Z,83.35
2023-03-06T00:03:59.411Z,83.44
2023-03-06T00:06:25.909Z,83.01
2023-03-06T00:08:52.375Z,83.07
2023-03-06T00:11:18.782Z,84.08
2023-03-06T00:13:45.211Z,83.70
2023-03-06T00:16:11.685Z,84.58
2023-03-06T00:18:38.065Z,84.58
2023-03-06T00:21:07.724Z,83.85
2023-03-06T00:23:34.253Z,84.15
2023-03-06T00:26:00.646Z,84.61
2023-03-06T00:28:27.203Z,84.75
2023-03-06T00:30:53.613Z,84.89
2023-03-06T00:33:19.970Z,84.25
2023-03-06T00:35:46.361Z,85.13
2023-03-06T00:38:14.682Z,84.66
2023-03-06T00:40:41.293Z,84.39
2023-03-06T00:43:07.736Z,84.27
2023-03-06T00:45:34.215Z,84.24
2023-03-06T00:48:00.801Z,84.06
2023-03-06T00:50:27.729Z,84.71
2023-03-06T00:52:54.461Z,85.17
2023-03-06T00:55:20.874Z,85.38
2023-03-06T00:57:47.288Z,84.96
2023-03-06T01:00:14.690Z,85.42
2023-03-06T01:02:41.588Z,84.88
2023-03-06T01:05:09.118Z,85.19
2023-03-06T01:07:36.920Z,85.17
2023-03-06T01:10:07.838Z,85.17
2023-03-06T01:12:34.344Z,85.26
2023-03-06T01:15:00.696Z,85.13
2023-03-06T01:17:27.145Z,85.57
2023-03-06T01:19:53.496Z,85.58
2023-03-06T01:22:19.855Z,85.70
2023-03-06T01:24:46.237Z,85.43
2023-03-06T01:27:12.742Z,86.19
2023-03-06T01:29:39.085Z,86.09
2023-03-06T01:32:05.907Z,85.61
2023-03-06T01:34:32.366Z,85.85
2023-03-06T01:36:58.886Z,85.45
2023-03-06T01:39:25.354Z,86.31
2023-03-06T01:41:51.732Z,86.16
2023-03-06T01:44:18.115Z,85.92
2023-03-06T01:46:45.469Z,86.59
2023-03-06T01:49:30.384Z,86.15
2023-03-06T01:52:08.132Z,86.55
2023-03-06T01:54:40.390Z,86.21
2023-03-06T01:57:17.864Z,87.11
2023-03-06T01:59:45.226Z,86.62
2023-03-06T02:02:14.048Z,86.87
2023-03-06T02:04:42.392Z,86.59
2023-03-06T02:07:09.662Z,87.42
2023-03-06T02:09:38.212Z,87.65
2023-03-06T02:12:14.259Z,87.26
2023-03-06T02:14:42.409Z,86.90
2023-03-06T02:17:10.240Z,86.69
2023-03-06T02:19:52.037Z,86.68
2023-03-06T02:22:18.809Z,87.67
2023-03-06T02:25:09.360Z,87.42
2023-03-06T02:27:35.932Z,87.87
2023-03-06T02:30:07.740Z,88.34
2023-03-06T02:32:34.192Z,87.90
2023-03-06T02:35:00.566Z,87.78
2023-03-06T02:37:28.872Z,88.11
2023-03-06T02:40:03.514Z,88.56
2023-03-06T02:42:30.077Z,88.81
2023-03-06T02:44:58.501Z,88.63
2023-03-06T02:47:25.059Z,88.41
2023-03-06T02:49:51.476Z,88.81
2023-03-06T02:52:18.151Z,89.11
2023-03-06T02:54:44.559Z,88.58
2023-03-06T02:57:11.017Z,88.45
2023-03-06T02:59:37.359Z,89.11
2023-03-06T03:02:03.821Z,88.83
2023-03-06T03:04:30.278Z,88.20
2023-03-06T03:06:56.644Z,88.53
2023-03-06T03:09:22.990Z,88.38
2023-03-06T03:11:49.371Z,87.97
2023-03-06T03:14:16.669Z,88.05
2023-03-06T03:16:43.017Z,88.74
2023-03-06T03:19:09.343Z,88.45
2023-03-06T03:21:35.766Z,88.34
2023-03-06T03:24:02.333Z,88.24
2023-03-06T03:26:28.736Z,88.16
2023-03-06T03:28:55.143Z,87.99
2023-03-06T03:31:21.771Z,87.76
2023-03-06T03:33:48.163Z,88.28
2023-03-06T03:36:14.666Z,87.55
2023-03-06T03:38:41.072Z,87.83
2023-03-06T03:41:07.465Z,87.89
2023-03-06T03:43:34.069Z,87.41
2023-03-06T03:46:00.564Z,87.67
2023-03-06T03:48:27.008Z,87.37
2023-03-06T03:50:53.401Z,86.74
2023-03-06T03:53:19.804Z,86.92
2023-03-06T03:55:47.811Z,86.92
2023-03-06T03:58:14.241Z,86.98
2023-03-06T04:00:40.621Z,86.52
2023-03-06T04:03:06.986Z,86.95
2023-03-06T04:05:33.884Z,86.98
2023-03-06T04:08:03.031Z,87.07
2023-03-06T04:10:29.535Z,87.52
2023-03-06T04:12:56.899Z,87.15
2023-03-06T04:15:23.541Z,87.12
2023-03-06T04:17:49.972Z,86.80
2023-03-06T04:20:16.670Z,87.23
2023-03-06T04:22:43.075Z,87.46
2023-03-06T04:25:09.858Z,87.15
2023-03-06T04:27:36.239Z,87.26
2023-03-06T04:30:02.909Z,87.54
2023-03-06T04:32:29.369Z,87.04
2023-03-06T04:34:55.756Z,87.41
2023-03-06T04:37:24.905Z,87.47
2023-03-06T04:39:51.774Z,87.55
2023-03-06T04:42:18.606Z,87.49
2023-03-06T04:44:45.333Z,87.59
2023-03-06T04:47:12.308Z,87.63
2023-03-06T04:49:38.685Z,87.72
2023-03-06T04:52:05.273Z,87.60
2023-03-06T04:54:31.665Z,88.17
2023-03-06T04:56:58.045Z,88.35
2023-03-06T04:59:24.479Z,88.07
2023-03-06T05:01:50.891Z,88.52
2023-03-06T05:04:17.311Z,88.40
2023-03-06T05:06:43.859Z,88.12
2023-03-06T05:09:10.241Z,88.40
2023-03-06T05:11:36.725Z,89.02
2023-03-06T05:14:03.204Z,89.58
2023-03-06T05:16:29.549Z,89.18
2023-03-06T05:18:55.908Z,89.77
2023-03-06T05:21:22.452Z,89.85
2023-03-06T05:23:48.822Z,89.32
2023-03-06T05:26:15.971Z,89.77
2023-03-06T05:28:42.568Z,89.76
2023-03-06T05:31:09.373Z,90.12
2023-03-06T05:33:36.609Z,89.74
2023-03-06T05:36:03.528Z,89.40
2023-03-06T05:38:29.926Z,89.98
2023-03-06T05:40:56.300Z,90.34
2023-03-06T05:43:22.738Z,90.08
2023-03-06T05:45:50.508Z,90.17
2023-03-06T05:48:17.004Z,90.29
2023-03-06T05:50:43.416Z,90.47
2023-03-06T05:53:09.897Z,89.93
2023-03-06T05:55:36.278Z,90.47
2023-03-06T05:58:02.887Z,90.29
2023-03-06T06:00:29.296Z,90.10
2023-03-06T06:02:55.640Z,90.44
2023-03-06T06:05:21.978Z,90.85
2023-03-06T06:07:48.457Z,90.70
2023-03-06T06:10:15.259Z,91.04
2023-03-06T06:12:41.750Z,91.25
2023-03-06T06:15:08.459Z,91.09
2023-03-06T06:17:34.813Z,91.43
2023-03-06T06:20:01.326Z,91.04
2023-03-06T06:22:27.731Z,91.15
2023-03-06T06:24:54.229Z,90.79
2023-03-06T06:27:20.816Z,90.80
2023-03-06T06:29:50.821Z,90.48
2023-03-06T06:32:17.317Z,90.12
2023-03-06T06:34:46.733Z,89.93
2023-03-06T06:37:13.323Z,89.98
2023-03-06T06:39:41.113Z,89.58
2023-03-06T06:42:28.571Z,89.91
2023-03-06T06:44:55.043Z,89.45
2023-03-06T06:47:24.188Z,89.62
2023-03-06T06:49:56.024Z,89.02
2023-03-06T06:52:23.958Z,89.34
2023-03-06T06:54:50.883Z,89.05
2023-03-06T06:57:17.483Z,89.23
2023-03-06T06:59:46.460Z,88.35
2023-03-06T07:02:15.624Z,88.65
2023-03-06T07:04:52.734Z,88.64
2023-03-06T07:07:25.344Z,88.23
2023-03-06T07:09:51.888Z,87.97
2023-03-06T07:12:18.442Z,88.63
2023-03-06T07:14:44.803Z,88.09
2023-03-06T07:17:11.179Z,87.80
2023-03-06T07:19:38.676Z,87.73
2023-03-06T07:22:07.529Z,87.16
2023-03-06T07:24:34.161Z,87.32
2023-03-06T07:27:00.549Z,86.84
2023-03-06T07:29:27.150Z,86.19
2023-03-06T07:31:53.607Z,85.73
2023-03-06T07:34:20.146Z,84.33
2023-03-06T07:36:46.622Z,83.71
2023-03-06T07:39:12.976Z,83.44
2023-03-06T07:41:39.348Z,82.76
2023-03-06T07:44:05.807Z,82.27
2023-03-06T07:46:32.363Z,82.15
2023-03-06T07:48:58.909Z,80.13
2023-03-06T07:51:25.449Z,77.99
2023-03-06T07:53:51.877Z,74.36
2023-03-06T07:56:18.342Z,73.54
2023-03-06T07:58:46.340Z,71.61
2023-03-06T08:01:15.795Z,70.28
2023-03-06T08:03:42.750Z,68.28
2023-03-06T08:06:32.186Z,67.42
2023-03-06T08:08:59.326Z,65.05
2023-03-06T08:11:30.044Z,67.46
2023-03-06T08:13:57.838Z,67.52
2023-03-06T08:16:25.966Z,70.39
2023-03-06T08:18:52.412Z,70.70
2023-03-06T08:21:21.985Z,71.31
2023-03-06T08:23:48.871Z,70.40
2023-03-06T08:26:21.552Z,70.17
2023-03-06T08:28:48.107Z,68.99
2023-03-06T08:31:23.238Z,69.04
2023-03-06T08:33:49.837Z,68.52
2023-03-06T08:36:16.189Z,67.04
2023-03-06T08:38:42.682Z,66.66
2023-03-06T08:41:09.017Z,65.42
2023-03-06T08:43:36.079Z,64.44
2023-03-06T08:46:02.680Z,63.09
2023-03-06T08:48:29.306Z,62.32
2023-03-06T08:50:56.130Z,62.10
2023-03-06T08:53:36.651Z,59.57
2023-03-06T08:56:14.590Z,59.85
2023-03-06T08:58:40.936Z,58.17
2023-03-06T09:01:20.288Z,56.18
2023-03-06T09:03:47.133Z,52.88
2023-03-06T09:06:14.096Z,51.07
2023-03-06T09:08:43.235Z,50.30
2023-03-06T09:11:14.257Z,50.25
2023-03-06T09:13:41.986Z,50.15
2023-03-06T09:16:10.100Z,47.05
2023-03-06T09:18:36.834Z,46.64
2023-03-06T09:21:04.856Z,46.46
2023-03-06T09:23:31.582Z,47.33
2023-03-06T09:25:59.361Z,47.89
2023-03-06T09:28:25.955Z,46.16
2023-03-06T09:30:52.514Z,45.84
2023-03-06T09:33:19.621Z,43.97
2023-03-06T09:35:52.191Z,42.56
2023-03-06T09:38:19.783Z,41.37
2023-03-06T09:41:04.806Z,41.68
2023-03-06T09:43:35.916Z,39.75
2023-03-06T09:46:25.073Z,40.47
2023-03-06T09:49:10.413Z,39.13
2023-03-06T09:51:48.115Z,39.81
2023-03-06T09:54:16.141Z,43.46
2023-03-06T09:56:50.379Z,42.23
2023-03-06T09:59:21.549Z,38.08
2023-03-06T10:01:59.765Z,38.19
2023-03-06T10:04:43.461Z,37.03
2023-03-06T10:07:22.465Z,39.71
2023-03-06T10:10:15.972Z,39.16
2023-03-06T10:12:49.286Z,38.21
2023-03-06T10:15:36.099Z,37.77
2023-03-06T10:18:04.446Z,38.22
2023-03-06T10:20:41.315Z,42.26
2023-03-06T10:23:35.125Z,41.00
2023-03-06T10:26:07.072Z,38.02
2023-03-06T10:28:42.570Z,37.76
2023-03-06T10:31:23.298Z,37.90
2023-03-06T10:33:49.672Z,38.26
2023-03-06T10:36:18.288Z,35.55
2023-03-06T10:38:48.296Z,36.35
2023-03-06T10:41:14.623Z,37.38
2023-03-06T10:43:47.998Z,39.85
2023-03-06T10:46:27.732Z,38.73
2023-03-06T10:49:00.250Z,35.67
2023-03-06T10:51:28.728Z,34.64
2023-03-06T10:53:57.171Z,33.16
2023-03-06T10:56:39.158Z,33.73
2023-03-06T10:59:17.172Z,30.88
2023-03-06T11:01:45.222Z,29.33
2023-03-06T11:04:16.252Z,30.27
2023-03-06T11:06:43.005Z,28.22
2023-03-06T11:09:15.458Z,30.20
2023-03-06T11:11:41.884Z,28.38
2023-03-06T11:14:27.510Z,32.17
2023-03-06T11:16:54.193Z,34.03
2023-03-06T11:19:26.539Z,30.46
2023-03-06T11:22:16.488Z,31.67
2023-03-06T11:24:48.409Z,31.16
2023-03-06T11:27:34.714Z,33.38
2023-03-06T11:30:05.934Z,37.82
2023-03-06T11:33:01.329Z,39.70
2023-03-06T11:35:35.721Z,40.74
2023-03-06T11:38:13.072Z,39.77
2023-03-06T11:40:54.738Z,39.19
2023-03-06T11:43:47.359Z,39.67
2023-03-06T11:46:24.915Z,41.09
2023-03-06T11:49:05.583Z,40.13
2023-03-06T11:51:38.036Z,41.39
2023-03-06T11:54:04.749Z,42.92
2023-03-06T11:57:03.616Z,41.17
2023-03-06T11:59:36.923Z,38.92
2023-03-06T12:02:43.138Z,40.51
2023-03-06T12:05:29.829Z,39.14
2023-03-06T12:08:38.792Z,40.97
2023-03-06T12:16:58.505Z,45.33
2023-03-06T12:19:46.162Z,45.76
2023-03-06T12:22:39.026Z,45.30
2023-03-06T12:25:31.771Z,44.94
2023-03-06T12:28:19.472Z,45.63
2023-03-06T12:31:07.115Z,46.74
2023-03-06T12:34:27.879Z,46.88
2023-03-06T12:37:12.852Z,44.08
2023-03-06T12:40:09.876Z,44.45
2023-03-06T12:43:15.869Z,46.49
2023-03-06T12:45:44.253Z,44.19
2023-03-06T12:48:25.680Z,44.85
2023-03-06T12:50:52.804Z,46.79
2023-03-06T12:53:27.513Z,47.99
2023-03-06T12:55:55.649Z,49.17
2023-03-06T12:58:31.045Z,49.34
2023-03-06T13:01:26.320Z,48.88
2023-03-06T13:04:29.227Z,47.15
2023-03-06T13:07:28.084Z,45.82
2023-03-06T13:10:08.817Z,46.46
2023-03-06T13:12:39.464Z,44.68
2023-03-06T13:15:35.107Z,43.48
2023-03-06T13:18:22.327Z,45.55
2023-03-06T13:20:50.283Z,48.06
2023-03-06T13:23:42.932Z,49.52
2023-03-06T13:26:31.500Z,49.11
2023-03-06T13:28:58.485Z,51.80
2023-03-06T13:31:32.796Z,50.08
2023-03-06T13:34:00.206Z,51.07
2023-03-06T13:36:39.404Z,52.22
2023-03-06T13:39:10.177Z,50.96
2023-03-06T13:41:52.885Z,51.78
2023-03-06T13:44:24.926Z,51.66
2023-03-06T13:47:05.504Z,53.23
2023-03-06T13:49:33.570Z,52.83
2023-03-06T13:52:17.781Z,52.98
2023-03-06T13:55:25.364Z,53.74
2023-03-06T13:58:10.901Z,53.40
2023-03-06T14:00:55.655Z,55.26
2023-03-06T14:03:37.363Z,55.19
2023-03-06T14:06:35.407Z,54.70
2023-03-06T14:09:08.002Z,55.75
2023-03-06T14:11:36.250Z,56.25
2023-03-06T14:14:03.616Z,56.28
2023-03-06T14:16:48.875Z,57.37
2023-03-06T14:19:18.542Z,56.42
2023-03-06T14:21:44.913Z,56.02
2023-03-06T14:24:17.917Z,56.45
2023-03-06T14:26:50.349Z,54.37
2023-03-06T14:29:25.846Z,54.03
2023-03-06T14:31:55.338Z,55.27
2023-03-06T14:34:30.605Z,56.04
2023-03-06T14:37:05.651Z,57.13
2023-03-06T14:39:37.280Z,59.28
2023-03-06T14:42:25.015Z,60.26
2023-03-06T14:45:19.610Z,59.92
2023-03-06T14:47:50.905Z,60.00
2023-03-06T14:50:28.030Z,59.94
2023-03-06T14:53:06.680Z,60.28
2023-03-06T14:55:35.479Z,59.67
2023-03-06T14:58:15.341Z,60.15
2023-03-06T15:00:45.065Z,59.68
2023-03-06T15:03:19.282Z,57.75
2023-03-06T15:05:47.137Z,55.99
2023-03-06T15:08:17.665Z,57.10
2023-03-06T15:10:57.138Z,58.24
2023-03-06T15:13:26.491Z,58.52
2023-03-06T15:16:25.019Z,57.80
2023-03-06T15:18:55.903Z,58.23
2023-03-06T15:21:23.888Z,57.38
2023-03-06T15:23:52.712Z,55.66
2023-03-06T15:26:29.527Z,57.59
2023-03-06T15:29:09.050Z,56.74
2023-03-06T15:31:45.112Z,57.43
2023-03-06T15:34:11.448Z,57.21
2023-03-06T15:36:48.959Z,56.35
2023-03-06T15:39:41.381Z,56.63
2023-03-06T15:42:19.318Z,56.62
2023-03-06T15:45:15.929Z,56.78
2023-03-06T15:47:43.818Z,55.65
2023-03-06T15:50:20.628Z,57.03
2023-03-06T15:52:48.220Z,56.50
2023-03-06T15:55:17.129Z,56.91
2023-03-06T15:57:59.715Z,55.66
2023-03-06T16:00:29.268Z,56.07
2023-03-06T16:02:57.592Z,56.58
2023-03-06T16:05:25.745Z,57.08
2023-03-06T16:07:52.220Z,61.29
2023-03-06T16:10:21.716Z,62.41
2023-03-06T16:12:51.223Z,63.34
2023-03-06T16:15:29.113Z,66.95
2023-03-06T16:17:59.890Z,67.82
2023-03-06T16:20:28.510Z,68.53
2023-03-06T16:22:55.308Z,71.50
2023-03-06T16:25:23.592Z,72.32
2023-03-06T16:27:55.480Z,73.42
2023-03-06T16:30:23.222Z,75.58
2023-03-06T16:32:49.677Z,76.84
2023-03-06T16:35:18.369Z,77.37
2023-03-06T16:37:46.491Z,77.96
2023-03-06T16:40:32.242Z,77.16
2023-03-06T16:42:58.593Z,78.57
2023-03-06T16:45:25.010Z,78.92
2023-03-06T16:47:51.790Z,78.51
2023-03-06T16:50:30.060Z,79.07
2023-03-06T16:52:57.911Z,78.41
2023-03-06T16:55:26.387Z,79.05
2023-03-06T16:57:53.655Z,78.46
2023-03-06T17:00:22.412Z,79.25
2023-03-06T17:02:49.173Z,78.99
2023-03-06T17:05:15.749Z,78.99
2023-03-06T17:07:42.418Z,79.17
2023-03-06T17:10:12.440Z,79.00
2023-03-06T17:12:39.265Z,79.06
2023-03-06T17:15:07.024Z,79.23
2023-03-06T17:17:33.958Z,79.50
2023-03-06T17:20:00.918Z,79.55
2023-03-06T17:22:27.785Z,79.60
2023-03-06T17:24:54.410Z,78.96
2023-03-06T17:27:22.775Z,79.57
2023-03-06T17:29:49.217Z,79.61
2023-03-06T17:32:15.734Z,79.44
2023-03-06T17:34:42.265Z,79.42
2023-03-06T17:37:08.735Z,79.64
2023-03-06T17:39:37.250Z,79.34
2023-03-06T17:42:04.509Z,79.94
2023-03-06T17:44:32.141Z,79.52
2023-03-06T17:46:58.688Z,80.75
2023-03-06T17:49:25.330Z,79.36
2023-03-06T17:51:52.598Z,79.55
2023-03-06T17:54:19.144Z,79.39
2023-03-06T17:56:45.510Z,79.04
2023-03-06T17:59:11.874Z,77.87
2023-03-06T18:01:38.311Z,77.88
2023-03-06T18:04:04.876Z,78.18
2023-03-06T18:06:33.444Z,78.20
2023-03-06T18:09:00.728Z,77.80
2023-03-06T18:11:27.724Z,78.21
2023-03-06T18:13:54.146Z,77.68
2023-03-06T18:16:22.975Z,78.08
2023-03-06T18:18:56.757Z,77.98
2023-03-06T18:21:24.396Z,78.48
2023-03-06T18:23:51.134Z,78.65
2023-03-06T18:26:26.655Z,79.34
2023-03-06T18:29:01.221Z,79.90
2023-03-06T18:31:33.743Z,80.20
2023-03-06T18:34:03.667Z,81.84
2023-03-06T18:36:32.674Z,82.70
2023-03-06T18:39:01.971Z,82.21
2023-03-06T18:41:28.371Z,83.22
2023-03-06T18:43:56.276Z,82.46
2023-03-06T18:46:23.390Z,83.78
2023-03-06T18:48:50.108Z,83.67
2023-03-06T18:51:17.123Z,84.13
2023-03-06T18:53:44.021Z,85.27
2023-03-06T18:56:16.700Z,84.94
2023-03-06T18:58:44.261Z,85.70
2023-03-06T19:01:10.680Z,85.93
2023-03-06T19:03:37.537Z,85.64
2023-03-06T19:06:09.202Z,86.20
2023-03-06T19:08:37.004Z,87.10
2023-03-06T19:11:06.048Z,87.17
2023-03-06T19:13:32.650Z,86.92
2023-03-06T19:15:59.400Z,86.97
2023-03-06T19:18:27.555Z,87.54
2023-03-06T19:20:54.331Z,86.61
2023-03-06T19:23:22.066Z,86.96
2023-03-06T19:25:58.648Z,87.18
2023-03-06T19:28:25.859Z,87.29
2023-03-06T19:30:52.617Z,87.64
2023-03-06T19:33:19.749Z,87.55
2023-03-06T19:35:46.369Z,87.83
2023-03-06T19:38:13.714Z,88.61
2023-03-06T19:40:40.053Z,87.69
2023-03-06T19:43:06.494Z,88.23
2023-03-06T19:45:32.887Z,88.72
2023-03-06T19:48:00.907Z,88.92
2023-03-06T19:50:30.698Z,89.24
2023-03-06T19:52:57.545Z,89.74
2023-03-06T19:55:26.267Z,88.70
2023-03-06T19:57:53.047Z,90.19
2023-03-06T20:00:19.785Z,90.14
2023-03-06T20:02:46.219Z,90.12
2023-03-06T20:05:12.763Z,89.85
2023-03-06T20:07:39.114Z,90.18
2023-03-06T20:10:05.730Z,91.26
2023-03-06T20:12:33.181Z,90.23
2023-03-06T20:14:59.881Z,90.75
2023-03-06T20:17:26.574Z,90.45
2023-03-06T20:19:53.149Z,91.20
2023-03-06T20:22:19.767Z,90.77
2023-03-06T20:24:46.311Z,90.94
2023-03-06T20:27:13.024Z,90.49
2023-03-06T20:29:44.463Z,91.26
2023-03-06T20:32:11.793Z,91.38
2023-03-06T20:34:38.979Z,92.04
2023-03-06T20:37:09.323Z,91.48
2023-03-06T20:39:35.896Z,91.38
2023-03-06T20:42:03.721Z,91.93
2023-03-06T20:44:30.580Z,91.54
2023-03-06T20:46:57.052Z,92.43
2023-03-06T20:49:24.633Z,92.53
2023-03-06T20:51:52.001Z,91.97
2023-03-06T20:54:18.445Z,91.46
2023-03-06T20:56:48.058Z,92.13
2023-03-06T20:59:15.054Z,92.00
2023-03-06T21:01:44.080Z,92.86
2023-03-06T21:04:15.921Z,92.63
2023-03-06T21:06:46.863Z,92.73
2023-03-06T21:09:15.827Z,92.55
2023-03-06T21:11:42.467Z,92.29
2023-03-06T21:14:08.885Z,91.96
2023-03-06T21:16:35.927Z,92.52
2023-03-06T21:19:02.384Z,92.58
2023-03-06T21:21:31.370Z,92.51
2023-03-06T21:23:58.197Z,92.34
2023-03-06T21:26:26.957Z,92.09
2023-03-06T21:28:53.500Z,92.15
2023-03-06T21:31:22.153Z,92.37
2023-03-06T21:33:49.865Z,92.67
2023-03-06T21:36:18.580Z,92.53
2023-03-06T21:38:45.016Z,93.00
2023-03-06T21:41:14.998Z,93.16
2023-03-06T21:43:42.675Z,92.59
2023-03-06T21:46:09.505Z,93.03
2023-03-06T21:48:36.245Z,92.74
2023-03-06T21:51:10.797Z,92.95
2023-03-06T21:53:37.790Z,93.05
2023-03-06T21:56:04.859Z,93.16
2023-03-06T21:58:31.572Z,93.31
2023-03-06T22:00:58.047Z,93.18
2023-03-06T22:03:24.747Z,93.44
2023-03-06T22:05:52.222Z,93.33
2023-03-06T22:08:21.440Z,93.27
2023-03-06T22:10:48.946Z,93.44
2023-03-06T22:13:15.792Z,93.84
2023-03-06T22:15:52.934Z,93.61
2023-03-06T22:18:20.127Z,93.10
2023-03-06T22:20:46.728Z,93.28
2023-03-06T22:23:13.187Z,93.24
2023-03-06T22:25:39.516Z,93.19
2023-03-06T22:28:06.307Z,93.22
2023-03-06T22:30:32.787Z,93.28
2023-03-06T22:32:59.263Z,93.04
2023-03-06T22:35:25.724Z,93.31
2023-03-06T22:37:52.082Z,92.86
2023-03-06T22:40:18.860Z,93.10
2023-03-06T22:42:45.236Z,92.99
2023-03-06T22:45:11.834Z,92.87
2023-03-06T22:47:38.577Z,92.63
2023-03-06T22:50:06.573Z,92.78
2023-03-06T22:52:33.413Z,92.35
2023-03-06T22:54:59.788Z,92.41
2023-03-06T22:57:26.252Z,93.04
2023-03-06T22:59:52.629Z,92.83
2023-03-06T23:02:19.199Z,92.69
2023-03-06T23:04:52.119Z,92.97
2023-03-06T23:07:20.053Z,92.83
2023-03-06T23:09:49.128Z,92.93
2023-03-06T23:12:15.588Z,92.80
2023-03-06T23:14:42.113Z,92.89
2023-03-06T23:17:09.145Z,92.47
2023-03-06T23:19:35.614Z,92.78
2023-03-06T23:22:02.096Z,92.25
2023-03-06T23:24:28.671Z,92.61
2023-03-06T23:26:55.003Z,92.85
2023-03-06T23:29:21.381Z,92.57
2023-03-06T23:31:47.817Z,92.64
2023-03-06T23:34:14.247Z,92.50
2023-03-06T23:36:41.620Z,92.88
2023-03-06T23:39:08.484Z,92.46
2023-03-06T23:41:35.009Z,92.77
2023-03-06T23:44:01.386Z,92.90
2023-03-06T23:46:27.783Z,92.70
2023-03-06T23:48:54.394Z,92.57
2023-03-06T23:51:22.539Z,93.07
2023-03-06T23:53:58.300Z,93.14
2023-03-06T23:56:26.548Z,92.97
2023-03-06T23:58:53.247Z,92.80
